Briefing drone pour Bourg-de-peage

Rechercher une autre localisation

Conditions de vol :


Nous sommes le : Dimanche 17 janvier 2021
Il est 16:30 UTC (17:30 LT)

Lever de soleil : 06:46 UTC (07:46 LT)
Coucher de soleil : 16:53 UTC (17:53 LT)

Météo

L'essentiel des conditions de vol

VIGILANCE MÉTÉO FRANCE - Drôme (26)
Pas de vigilances particulieres
METAR de LFLU
LFLU 171600Z AUTO 01015KT 9999 FEW030 OVC066 06/03 Q1023

Date d'émission: 17/01/2021
Heure d'émission: 16:00 UTC
Vent: 010° pour 15 KT (28 km/h)
Visibilité horizontale: > 10 km
Plafond :
- Peu de nuages à 3000ft (914m)
- Couvert à 6600ft (2012m)
Température: 6 °C
Point de rosée: 3 °C
Humidité: 81%
Pression (QNH): 1023 hPa
Prévision 24h pour Valence (10 km)
Vent : 3° pour 6 KT (22 km/h)
Temperature Maxi: 4 °C
Temperature Min: 4 °C
Humidité : 81%
Condition : Nuageux



Warning: count(): Parameter must be an array or an object that implements Countable in /homepages/6/d509196549/htdocs/droneoxygene/briefing.php on line 743
WEBCAM POUR BOURG-DE-PEAGE

Réglementation

Voler en sécurité

CARTES AERONAUTIQUE 1/500.000
CARTES VAC (LFLU)
SUP AIP




Chargement des AIP...
NOTAM (BOURG-DE-PEAGE + Terrain à proximité / FIR )




Chargement des NOTAMS...
CONTACT PREFECTURE 26
Drôme (26) : ddt-sdsr@drome.gouv.fr


Avertissement : Les données mises à disposition sont indicatives. Oxygène Drone ne pourra être tenu responsable de dégâts causés aux biens et aux personnes.